Meishomaru — JD3044 — position and weather

sailwx.info

Track history (hours):
 
Tides and Currents Weather Stations Pressure Air Temp Water Temp Dewpoint Dewpoint Depression Visibility Wind Speed Wind Dir Waves Ship Positions

Meishomaru

Last reported at 2015-Jun-19 13:33 UTC. Time now 2015-Jul-03 17:18 UTC.
Position N 35°05' E 139°37'.
Warning: this ship's position is 14 days out of date.

Length 68 m; draft 3.6 m.

Type: Tanker. MMSI: 431001216.

Date/timePositionNaut miles runAvg speedWind from/ knotsBaromVisibWave heightAir tempDewpointWater temp
2015-Jun-19 13:33N 35°05' E 139°37'1312.7
2015-Jun-19 12:33N 35°15' E 139°46'1111.5
2015-Jun-19 11:34N 35°26' E 139°45'5 4.0
2015-Jun-19 10:19N 35°31' E 139°46'0 0.0
2015-Jun-19 09:25N 35°31' E 139°46'0 0.0
2015-Jun-19 08:31N 35°31' E 139°46'0 0.0
2015-Jun-19 07:25N 35°31' E 139°46'0 0.0
2015-Jun-19 06:25N 35°31' E 139°46'0 0.1
2015-Jun-19 05:34N 35°31' E 139°46'3 3.2
2015-Jun-19 04:31N 35°29' E 139°49'0 0.0
2015-Jun-19 03:31N 35°29' E 139°49'0 0.0
2015-Jun-19 02:31N 35°29' E 139°49'0 0.0
2015-Jun-19 01:31N 35°29' E 139°49'0 0.0
2015-Jun-19 00:31N 35°29' E 139°49'0 0.0
2015-Jun-18 23:28N 35°29' E 139°49'0 0.0
2015-Jun-18 22:31N 35°29' E 139°49'0 0.0
2015-Jun-18 21:31N 35°29' E 139°49'0 0.0
2015-Jun-18 20:31N 35°29' E 139°49'0 0.0
2015-Jun-18 19:28N 35°29' E 139°49'0 0.0
2015-Jun-18 18:31N 35°29' E 139°49'0 0.0
2015-Jun-18 17:31N 35°29' E 139°49'0 0.0
2015-Jun-18 16:28N 35°29' E 139°49'0 0.0
2015-Jun-18 15:31N 35°29' E 139°49'0 0.0
2015-Jun-18 14:31N 35°29' E 139°49'7 7.3
2015-Jun-18 13:33N 35°23' E 139°46'1111.0
2015-Jun-18 12:33N 35°12' E 139°47'1211.8
2015-Jun-18 11:33N 35°02' E 139°39'237 9.5
2015-Jun-17 10:32N 34°08' E 134°59'1411.2
2015-Jun-17 09:17N 34°21' E 134°59'910.8
2015-Jun-17 08:28N 34°30' E 135°02'8 8.0
2015-Jun-17 07:30N 34°36' E 134°56'1 0.1
2015-Jun-16 09:19N 34°37' E 134°55'911.9
2015-Jun-16 08:33N 34°34' E 135°05'2412.1
2015-Jun-16 06:34N 34°10' E 134°60'214 9.6
2015-Jun-15 08:18N 34°51' E 139°15'911.1
2015-Jun-15 07:32N 34°57' E 139°23'1111.5
2015-Jun-15 06:33N 35°03' E 139°34'1211.8
2015-Jun-15 05:33N 35°11' E 139°45'1010.2
2015-Jun-15 04:33N 35°21' E 139°42'1110.8
2015-Jun-15 03:33N 35°29' E 139°51'1010.2
2015-Jun-15 02:33N 35°32' E 140°03'0 0.0
2015-Jun-15 01:31N 35°32' E 140°03'0 0.0
2015-Jun-15 00:31N 35°32' E 140°03'1 0.8
2015-Jun-14 23:33N 35°32' E 140°03'7 5.6
2015-Jun-14 22:24N 35°29' E 139°55'0 0.0
2015-Jun-14 21:30N 35°29' E 139°55'0 0.0
2015-Jun-14 20:24N 35°29' E 139°55'0 0.0
2015-Jun-14 19:30N 35°29' E 139°55'9 9.7
2015-Jun-14 18:34N 35°24' E 139°46'1211.6
2015-Jun-14 17:33N 35°12' E 139°47'1212.3
2015-Jun-14 16:33N 35°00' E 139°44'1110.8
2015-Jun-14 15:33N 34°52' E 139°51'1211.1
2015-Jun-14 14:26N 34°57' E 140°05'4411.2
2015-Jun-14 10:33N 35°28' E 140°43'1211.8
2015-Jun-14 09:32N 35°37' E 140°52'2210.7
2015-Jun-14 07:30N 35°58' E 140°43'5 0.9
2015-Jun-14 02:14N 35°54' E 140°41'4 6.0
2015-Jun-14 01:33N 35°57' E 140°43'1310.9
2015-Jun-14 00:23N 35°48' E 140°53'1011.3
2015-Jun-13 23:32N 35°38' E 140°53'1513.1
2015-Jun-13 22:25N 35°26' E 140°42'1213.0
2015-Jun-13 21:31N 35°17' E 140°34'1313.3
2015-Jun-13 20:32N 35°07' E 140°23'1212.8
2015-Jun-13 19:33N 35°00' E 140°10'1212.3
2015-Jun-13 18:32N 34°53' E 139°58'1110.8
2015-Jun-13 17:32N 34°55' E 139°45'1111.6
2015-Jun-13 16:34N 35°06' E 139°44'1111.2
2015-Jun-13 15:33N 35°18' E 139°44'10 9.9
2015-Jun-13 14:33N 35°27' E 139°47'1211.6
2015-Jun-13 13:32N 35°31' E 140°01'1 1.1
2015-Jun-13 12:28N 35°31' E 140°03'0 0.0
2015-Jun-13 11:28N 35°31' E 140°03'0 0.0
2015-Jun-13 10:22N 35°31' E 140°03'0 0.0
2015-Jun-13 09:31N 35°31' E 140°03'0 0.0
2015-Jun-13 08:31N 35°31' E 140°03'7 7.5
2015-Jun-13 07:33N 35°31' E 139°54'7 6.9
2015-Jun-13 06:33N 35°32' E 139°45'0 0.0
2015-Jun-13 05:24N 35°32' E 139°45'0 0.0
2015-Jun-13 04:30N 35°32' E 139°45'4 3.8
2015-Jun-13 03:33N 35°29' E 139°49'0 0.0
2015-Jun-13 02:29N 35°29' E 139°49'0 0.1
2015-Jun-13 01:32N 35°29' E 139°49'0 0.0
2015-Jun-13 00:32N 35°29' E 139°49'0 0.0
2015-Jun-12 23:29N 35°29' E 139°49'0 0.0
2015-Jun-12 22:29N 35°29' E 139°49'0 0.0
2015-Jun-12 21:26N 35°29' E 139°49'0 0.0
2015-Jun-12 20:32N 35°29' E 139°49'0 0.0
2015-Jun-12 19:29N 35°29' E 139°49'0 0.0
2015-Jun-12 18:29N 35°29' E 139°49'0 0.0
2015-Jun-12 17:32N 35°29' E 139°49'0 0.0
2015-Jun-12 16:32N 35°29' E 139°49'0 0.1
2015-Jun-12 15:33N 35°29' E 139°49'1110.8
2015-Jun-12 14:33N 35°19' E 139°44'1211.7
2015-Jun-12 13:33N 35°08' E 139°46'1211.9
2015-Jun-12 12:32N 34°59' E 139°35'  
2015-Jun-10 00:22N 34°07' E 134°47'  
Track history (hours):
 
Tides and Currents Weather Stations Pressure Air Temp Water Temp Dewpoint Dewpoint Depression Visibility Wind Speed Wind Dir Waves Ship Positions

Meishomaru

Last reported at 2015-Jun-19 13:33 UTC. Time now 2015-Jul-03 17:18 UTC.
Position N 35°05' E 139°37'.
Warning: this ship's position is 14 days out of date.

Length 68 m; draft 3.6 m.

Type: Tanker. MMSI: 431001216.

Date/timePositionNaut miles runAvg speedWind from/ knotsBaromVisibWave heightAir tempDewpointWater temp
2015-Jun-19 13:33N 35°05' E 139°37'1312.7
2015-Jun-19 12:33N 35°15' E 139°46'1111.5
2015-Jun-19 11:34N 35°26' E 139°45'5 4.0
2015-Jun-19 10:19N 35°31' E 139°46'0 0.0
2015-Jun-19 09:25N 35°31' E 139°46'0 0.0
2015-Jun-19 08:31N 35°31' E 139°46'0 0.0
2015-Jun-19 07:25N 35°31' E 139°46'0 0.0
2015-Jun-19 06:25N 35°31' E 139°46'0 0.1
2015-Jun-19 05:34N 35°31' E 139°46'3 3.2
2015-Jun-19 04:31N 35°29' E 139°49'0 0.0
2015-Jun-19 03:31N 35°29' E 139°49'0 0.0
2015-Jun-19 02:31N 35°29' E 139°49'0 0.0
2015-Jun-19 01:31N 35°29' E 139°49'0 0.0
2015-Jun-19 00:31N 35°29' E 139°49'0 0.0
2015-Jun-18 23:28N 35°29' E 139°49'0 0.0
2015-Jun-18 22:31N 35°29' E 139°49'0 0.0
2015-Jun-18 21:31N 35°29' E 139°49'0 0.0
2015-Jun-18 20:31N 35°29' E 139°49'0 0.0
2015-Jun-18 19:28N 35°29' E 139°49'0 0.0
2015-Jun-18 18:31N 35°29' E 139°49'0 0.0
2015-Jun-18 17:31N 35°29' E 139°49'0 0.0
2015-Jun-18 16:28N 35°29' E 139°49'0 0.0
2015-Jun-18 15:31N 35°29' E 139°49'0 0.0
2015-Jun-18 14:31N 35°29' E 139°49'7 7.3
2015-Jun-18 13:33N 35°23' E 139°46'1111.0
2015-Jun-18 12:33N 35°12' E 139°47'1211.8
2015-Jun-18 11:33N 35°02' E 139°39'237 9.5
2015-Jun-17 10:32N 34°08' E 134°59'1411.2
2015-Jun-17 09:17N 34°21' E 134°59'910.8
2015-Jun-17 08:28N 34°30' E 135°02'8 8.0
2015-Jun-17 07:30N 34°36' E 134°56'1 0.1
2015-Jun-16 09:19N 34°37' E 134°55'911.9
2015-Jun-16 08:33N 34°34' E 135°05'2412.1
2015-Jun-16 06:34N 34°10' E 134°60'214 9.6
2015-Jun-15 08:18N 34°51' E 139°15'911.1
2015-Jun-15 07:32N 34°57' E 139°23'1111.5
2015-Jun-15 06:33N 35°03' E 139°34'1211.8
2015-Jun-15 05:33N 35°11' E 139°45'1010.2
2015-Jun-15 04:33N 35°21' E 139°42'1110.8
2015-Jun-15 03:33N 35°29' E 139°51'1010.2
2015-Jun-15 02:33N 35°32' E 140°03'0 0.0
2015-Jun-15 01:31N 35°32' E 140°03'0 0.0
2015-Jun-15 00:31N 35°32' E 140°03'1 0.8
2015-Jun-14 23:33N 35°32' E 140°03'7 5.6
2015-Jun-14 22:24N 35°29' E 139°55'0 0.0
2015-Jun-14 21:30N 35°29' E 139°55'0 0.0
2015-Jun-14 20:24N 35°29' E 139°55'0 0.0
2015-Jun-14 19:30N 35°29' E 139°55'9 9.7
2015-Jun-14 18:34N 35°24' E 139°46'1211.6
2015-Jun-14 17:33N 35°12' E 139°47'1212.3
2015-Jun-14 16:33N 35°00' E 139°44'1110.8
2015-Jun-14 15:33N 34°52' E 139°51'1211.1
2015-Jun-14 14:26N 34°57' E 140°05'4411.2
2015-Jun-14 10:33N 35°28' E 140°43'1211.8
2015-Jun-14 09:32N 35°37' E 140°52'2210.7
2015-Jun-14 07:30N 35°58' E 140°43'5 0.9
2015-Jun-14 02:14N 35°54' E 140°41'4 6.0
2015-Jun-14 01:33N 35°57' E 140°43'1310.9
2015-Jun-14 00:23N 35°48' E 140°53'1011.3
2015-Jun-13 23:32N 35°38' E 140°53'1513.1
2015-Jun-13 22:25N 35°26' E 140°42'1213.0
2015-Jun-13 21:31N 35°17' E 140°34'1313.3
2015-Jun-13 20:32N 35°07' E 140°23'1212.8
2015-Jun-13 19:33N 35°00' E 140°10'1212.3
2015-Jun-13 18:32N 34°53' E 139°58'1110.8
2015-Jun-13 17:32N 34°55' E 139°45'1111.6
2015-Jun-13 16:34N 35°06' E 139°44'1111.2
2015-Jun-13 15:33N 35°18' E 139°44'10 9.9
2015-Jun-13 14:33N 35°27' E 139°47'1211.6
2015-Jun-13 13:32N 35°31' E 140°01'1 1.1
2015-Jun-13 12:28N 35°31' E 140°03'0 0.0
2015-Jun-13 11:28N 35°31' E 140°03'0 0.0
2015-Jun-13 10:22N 35°31' E 140°03'0 0.0
2015-Jun-13 09:31N 35°31' E 140°03'0 0.0
2015-Jun-13 08:31N 35°31' E 140°03'7 7.5
2015-Jun-13 07:33N 35°31' E 139°54'7 6.9
2015-Jun-13 06:33N 35°32' E 139°45'0 0.0
2015-Jun-13 05:24N 35°32' E 139°45'0 0.0
2015-Jun-13 04:30N 35°32' E 139°45'4 3.8
2015-Jun-13 03:33N 35°29' E 139°49'0 0.0
2015-Jun-13 02:29N 35°29' E 139°49'0 0.1
2015-Jun-13 01:32N 35°29' E 139°49'0 0.0
2015-Jun-13 00:32N 35°29' E 139°49'0 0.0
2015-Jun-12 23:29N 35°29' E 139°49'0 0.0
2015-Jun-12 22:29N 35°29' E 139°49'0 0.0
2015-Jun-12 21:26N 35°29' E 139°49'0 0.0
2015-Jun-12 20:32N 35°29' E 139°49'0 0.0
2015-Jun-12 19:29N 35°29' E 139°49'0 0.0
2015-Jun-12 18:29N 35°29' E 139°49'0 0.0
2015-Jun-12 17:32N 35°29' E 139°49'0 0.0
2015-Jun-12 16:32N 35°29' E 139°49'0 0.1
2015-Jun-12 15:33N 35°29' E 139°49'1110.8
2015-Jun-12 14:33N 35°19' E 139°44'1211.7
2015-Jun-12 13:33N 35°08' E 139°46'1211.9
2015-Jun-12 12:32N 34°59' E 139°35'  
2015-Jun-10 00:22N 34°07' E 134°47'  

Dump ship's entire track history